createdAt,value
2022-08-05T00:00:52.943Z,75.87
2022-08-05T00:03:25.048Z,75.79
2022-08-05T00:06:06.539Z,75.12
2022-08-05T00:08:49.049Z,74.61
2022-08-05T00:11:34.654Z,75.03
2022-08-05T00:14:12.908Z,74.27
2022-08-05T00:16:52.537Z,74.47
2022-08-05T00:19:33.573Z,74.34
2022-08-05T00:22:05.902Z,75.11
2022-08-05T00:24:38.564Z,74.48
2022-08-05T00:27:16.882Z,74.80
2022-08-05T00:29:48.936Z,74.35
2022-08-05T00:32:21.100Z,73.61
2022-08-05T00:35:06.276Z,74.79
2022-08-05T00:37:51.344Z,74.56
2022-08-05T00:40:29.413Z,73.79
2022-08-05T00:43:07.396Z,73.60
2022-08-05T00:45:43.668Z,74.62
2022-08-05T00:48:27.735Z,74.39
2022-08-05T00:51:49.906Z,73.68
2022-08-05T00:54:02.472Z,73.71
2022-08-05T00:56:35.191Z,73.33
2022-08-05T00:59:07.339Z,73.91
2022-08-05T01:01:42.904Z,74.12
2022-08-05T01:04:26.633Z,73.51
2022-08-05T01:06:59.101Z,73.75
2022-08-05T01:09:31.066Z,75.77
2022-08-05T01:12:18.660Z,76.52
2022-08-05T01:15:05.180Z,76.60
2022-08-05T01:17:54.245Z,77.56
2022-08-05T01:20:54.280Z,78.56
2022-08-05T01:23:44.989Z,82.16
2022-08-05T01:27:00.891Z,81.28
2022-08-05T01:29:55.036Z,86.16
2022-08-05T01:32:34.090Z,86.57
2022-08-05T01:35:10.951Z,88.77
2022-08-05T01:38:04.479Z,89.14
2022-08-05T01:40:38.454Z,90.46
2022-08-05T01:43:22.393Z,90.67
2022-08-05T01:45:57.828Z,91.20
2022-08-05T01:48:32.234Z,89.89
2022-08-05T01:51:12.323Z,90.83
2022-08-05T01:53:57.048Z,91.49
2022-08-05T01:58:11.970Z,90.53
2022-08-05T01:59:27.885Z,90.46
2022-08-05T02:02:03.466Z,90.60
2022-08-05T02:04:38.769Z,91.45
2022-08-05T02:07:12.861Z,91.93
2022-08-05T02:09:54.528Z,91.54
2022-08-05T02:12:55.385Z,92.06
2022-08-05T02:15:36.101Z,91.97
2022-08-05T02:18:31.308Z,91.93
2022-08-05T02:21:20.476Z,92.69
2022-08-05T02:23:57.530Z,92.05
2022-08-05T02:26:41.105Z,92.56
2022-08-05T02:29:58.574Z,91.56
2022-08-05T02:32:24.037Z,91.40
2022-08-05T02:35:13.839Z,92.22
2022-08-05T02:37:53.980Z,91.80
2022-08-05T02:40:26.869Z,91.02
2022-08-05T02:42:59.927Z,90.13
2022-08-05T02:45:52.221Z,91.42
2022-08-05T02:48:29.384Z,92.27
2022-08-05T02:51:03.564Z,92.86
2022-08-05T02:53:39.748Z,91.96
2022-08-05T02:56:16.134Z,91.79
2022-08-05T02:58:52.710Z,92.05
2022-08-05T03:01:27.027Z,92.06
2022-08-05T03:04:14.269Z,91.64
2022-08-05T03:06:56.028Z,93.26
2022-08-05T03:09:37.561Z,92.57
2022-08-05T03:12:51.871Z,92.91
2022-08-05T03:15:24.562Z,91.65
2022-08-05T03:17:57.614Z,91.90
2022-08-05T03:20:29.913Z,92.40
2022-08-05T03:23:05.026Z,92.14
2022-08-05T03:26:04.762Z,91.89
2022-08-05T03:28:32.431Z,92.41
2022-08-05T03:31:05.363Z,92.69
2022-08-05T03:33:51.156Z,91.69
2022-08-05T03:36:30.571Z,91.17
2022-08-05T03:39:19.921Z,91.09
2022-08-05T03:41:58.906Z,92.33
2022-08-05T03:44:30.949Z,92.78
2022-08-05T03:47:05.593Z,91.13
2022-08-05T03:49:51.944Z,90.88
2022-08-05T03:52:38.380Z,91.66
2022-08-05T03:56:05.718Z,92.44
2022-08-05T03:58:30.021Z,92.73
2022-08-05T04:01:05.100Z,93.16
2022-08-05T04:03:38.950Z,92.51
2022-08-05T04:06:11.318Z,91.59
2022-08-05T04:08:45.307Z,91.54
2022-08-05T04:11:20.765Z,90.68
2022-08-05T04:13:55.637Z,91.07
2022-08-05T04:16:32.587Z,90.96
2022-08-05T04:19:10.735Z,91.65
2022-08-05T04:22:09.624Z,91.31
2022-08-05T04:24:34.743Z,90.95
2022-08-05T04:27:06.827Z,90.65
2022-08-05T04:29:39.884Z,90.31
2022-08-05T04:32:11.899Z,89.90
2022-08-05T04:34:43.881Z,89.39
2022-08-05T04:37:15.861Z,89.20
2022-08-05T04:39:52.661Z,89.56
2022-08-05T04:42:25.291Z,88.78
2022-08-05T04:44:58.127Z,89.23
2022-08-05T04:47:38.550Z,88.53
2022-08-05T04:50:15.414Z,88.38
2022-08-05T04:53:09.784Z,88.27
2022-08-05T04:56:15.063Z,88.32
2022-08-05T04:58:36.666Z,88.80
2022-08-05T05:01:08.894Z,89.09
2022-08-05T05:03:42.233Z,89.32
2022-08-05T05:06:39.000Z,88.52
2022-08-05T05:09:07.013Z,88.45
2022-08-05T05:11:42.122Z,88.12
2022-08-05T05:14:31.996Z,88.42
2022-08-05T05:17:07.455Z,88.03
2022-08-05T05:19:44.205Z,88.03
2022-08-05T05:22:22.742Z,87.82
2022-08-05T05:25:00.223Z,87.46
2022-08-05T05:27:41.253Z,87.17
2022-08-05T05:30:29.348Z,87.30
2022-08-05T05:33:14.015Z,86.15
2022-08-05T05:35:48.824Z,86.08
2022-08-05T05:38:27.051Z,86.59
2022-08-05T05:40:59.669Z,86.68
2022-08-05T05:43:57.524Z,84.60
2022-08-05T05:46:23.610Z,84.97
2022-08-05T05:48:55.634Z,83.05
2022-08-05T05:51:27.852Z,83.32
2022-08-05T05:54:00.194Z,84.35
2022-08-05T05:56:34.717Z,84.47
2022-08-05T05:59:08.166Z,85.62
2022-08-05T06:01:57.122Z,86.69
2022-08-05T06:04:30.109Z,86.07
2022-08-05T06:07:02.107Z,86.37
2022-08-05T06:10:01.467Z,85.64
2022-08-05T06:12:27.279Z,85.00
2022-08-05T06:15:02.360Z,85.80
2022-08-05T06:17:53.447Z,85.70
2022-08-05T06:20:26.211Z,86.40
2022-08-05T06:23:00.666Z,86.02
2022-08-05T06:26:12.620Z,85.22
2022-08-05T06:28:28.642Z,86.69
2022-08-05T06:31:00.775Z,86.82
2022-08-05T06:34:07.117Z,88.24
2022-08-05T06:36:53.548Z,88.95
2022-08-05T06:39:28.097Z,90.83
2022-08-05T06:42:04.000Z,91.33
2022-08-05T06:44:36.319Z,92.44
2022-08-05T06:47:10.577Z,92.18
2022-08-05T06:50:05.123Z,93.72
2022-08-05T06:52:40.393Z,93.20
2022-08-05T06:55:12.531Z,92.24
2022-08-05T06:58:03.577Z,93.82
2022-08-05T07:00:38.905Z,92.29
2022-08-05T07:03:13.190Z,91.19
2022-08-05T07:05:48.551Z,91.58
2022-08-05T07:08:25.246Z,91.33
2022-08-05T07:10:57.410Z,91.85
2022-08-05T07:13:58.179Z,92.74
2022-08-05T07:18:08.130Z,92.51
2022-08-05T07:22:33.984Z,92.49
2022-08-05T07:25:23.515Z,92.44
2022-08-05T07:28:04.257Z,92.04
2022-08-05T07:30:40.061Z,91.22
2022-08-05T07:33:16.190Z,92.60
2022-08-05T07:36:02.762Z,90.64
2022-08-05T07:38:43.628Z,91.21
2022-08-05T07:42:13.980Z,91.57
2022-08-05T07:44:14.531Z,92.48
2022-08-05T07:46:51.292Z,91.57
2022-08-05T07:49:23.522Z,92.04
2022-08-05T07:51:55.464Z,91.01
2022-08-05T07:54:30.670Z,91.79
2022-08-05T07:57:23.666Z,92.67
2022-08-05T07:59:56.555Z,93.58
2022-08-05T08:02:31.017Z,95.56
2022-08-05T08:05:21.720Z,95.15
2022-08-05T08:07:59.774Z,95.03
2022-08-05T08:10:32.365Z,96.79
2022-08-05T08:13:05.702Z,97.21
2022-08-05T08:16:35.793Z,98.41
2022-08-05T08:18:30.264Z,97.90
2022-08-05T08:21:04.019Z,98.34
2022-08-05T08:24:03.163Z,98.54
2022-08-05T08:26:33.443Z,99.82
2022-08-05T08:30:03.585Z,100.00
2022-08-05T08:31:57.659Z,100.00
2022-08-05T08:34:33.203Z,100.00
2022-08-05T08:37:05.659Z,100.00
2022-08-05T08:39:38.164Z,100.00
2022-08-05T08:42:33.839Z,100.00
2022-08-05T08:45:22.307Z,100.00
2022-08-05T08:48:12.545Z,100.00
2022-08-05T08:51:22.544Z,100.00
2022-08-05T08:53:48.978Z,100.00
2022-08-05T08:56:27.162Z,100.00
2022-08-05T08:59:00.774Z,100.00
2022-08-05T09:01:33.301Z,100.00
2022-08-05T09:04:05.436Z,100.00
2022-08-05T09:06:42.728Z,100.00
2022-08-05T09:09:17.912Z,100.00
2022-08-05T09:11:55.395Z,100.00
2022-08-05T09:14:58.880Z,100.00
2022-08-05T09:17:42.810Z,100.00
2022-08-05T09:20:36.663Z,100.00
2022-08-05T09:23:19.057Z,100.00
2022-08-05T09:26:07.314Z,100.00
2022-08-05T09:28:41.578Z,100.00
2022-08-05T09:31:23.307Z,100.00
2022-08-05T09:34:12.419Z,100.00
2022-08-05T09:36:56.185Z,100.00
2022-08-05T09:39:41.677Z,100.00
2022-08-05T09:42:28.242Z,100.00
2022-08-05T09:45:17.388Z,100.00
2022-08-05T09:48:00.566Z,100.00
2022-08-05T09:50:37.692Z,100.00
2022-08-05T09:53:17.160Z,100.00
2022-08-05T09:56:04.732Z,100.00
2022-08-05T09:58:37.211Z,100.00
2022-08-05T10:01:22.366Z,100.00
2022-08-05T10:04:10.439Z,100.00
2022-08-05T10:07:19.523Z,100.00
2022-08-05T10:10:13.990Z,100.00
2022-08-05T10:12:54.270Z,100.00
2022-08-05T10:15:34.408Z,100.00
2022-08-05T10:18:22.367Z,100.00
2022-08-05T10:21:12.001Z,100.00
2022-08-05T10:23:59.031Z,100.00
2022-08-05T10:26:33.936Z,100.00
2022-08-05T10:29:08.600Z,100.00
2022-08-05T10:32:52.386Z,100.00
2022-08-05T10:34:34.998Z,100.00
2022-08-05T10:37:13.646Z,100.00
2022-08-05T10:39:59.311Z,100.00
2022-08-05T10:42:38.770Z,100.00
2022-08-05T10:45:23.870Z,100.00
2022-08-05T10:48:57.464Z,100.00
2022-08-05T10:51:53.095Z,100.00
2022-08-05T10:55:11.086Z,100.00
2022-08-05T10:57:51.260Z,100.00
2022-08-05T11:00:30.184Z,100.00
2022-08-05T11:03:23.251Z,100.00
2022-08-05T11:06:16.155Z,100.00
2022-08-05T11:09:18.752Z,100.00
2022-08-05T11:12:05.005Z,100.00
2022-08-05T11:15:01.336Z,100.00
2022-08-05T11:17:57.130Z,100.00
2022-08-05T11:20:46.090Z,100.00
2022-08-05T11:24:05.717Z,100.00
2022-08-05T11:26:32.443Z,100.00
2022-08-05T11:29:13.960Z,100.00
2022-08-05T11:31:56.714Z,98.15
2022-08-05T11:34:51.998Z,95.96
2022-08-05T11:38:29.156Z,95.43
2022-08-05T11:41:34.276Z,95.83
2022-08-05T11:44:08.402Z,95.94
2022-08-05T11:46:58.062Z,92.64
2022-08-05T11:49:42.896Z,94.18
2022-08-05T11:52:23.528Z,92.85
2022-08-05T11:55:07.619Z,92.67
2022-08-05T11:58:10.029Z,88.90
2022-08-05T12:00:40.468Z,86.24
2022-08-05T12:03:29.650Z,85.15
2022-08-05T12:06:06.653Z,86.41
2022-08-05T12:08:55.049Z,86.80
2022-08-05T12:11:40.252Z,88.18
2022-08-05T12:14:13.850Z,84.68
2022-08-05T12:16:47.552Z,79.09
2022-08-05T12:20:26.399Z,73.38
2022-08-05T12:22:20.000Z,73.79
2022-08-05T12:24:53.138Z,72.53
2022-08-05T12:27:33.261Z,70.87
2022-08-05T12:30:10.553Z,73.26
2022-08-05T12:32:53.711Z,69.22
2022-08-05T12:35:36.908Z,71.64
2022-08-05T12:38:11.859Z,69.81
2022-08-05T12:40:47.226Z,64.20
2022-08-05T12:43:22.348Z,65.48
2022-08-05T12:45:56.867Z,63.34
2022-08-05T12:48:39.950Z,60.58
2022-08-05T12:51:21.848Z,64.92
2022-08-05T12:54:16.829Z,56.88
2022-08-05T12:57:02.506Z,60.78
2022-08-05T13:01:58.500Z,62.18
2022-08-05T13:02:50.968Z,63.38
2022-08-05T13:05:33.878Z,65.82
2022-08-05T13:08:09.555Z,60.16
2022-08-05T13:10:50.736Z,61.20
2022-08-05T13:14:05.713Z,63.62
2022-08-05T13:16:24.974Z,54.97
2022-08-05T13:18:58.944Z,51.37
2022-08-05T13:21:37.907Z,51.64
2022-08-05T13:24:36.240Z,53.04
2022-08-05T13:27:38.115Z,57.31
2022-08-05T13:30:36.065Z,58.91
2022-08-05T13:33:06.590Z,55.25
2022-08-05T13:35:47.663Z,49.82
2022-08-05T13:38:30.507Z,47.09
2022-08-05T13:41:06.272Z,46.03
2022-08-05T13:43:44.916Z,47.40
2022-08-05T13:46:44.375Z,50.05
2022-08-05T13:49:20.037Z,52.55
2022-08-05T13:51:54.111Z,53.31
2022-08-05T13:54:26.505Z,52.79
2022-08-05T13:56:58.662Z,53.09
2022-08-05T13:59:30.999Z,54.12
2022-08-05T14:02:04.845Z,58.08
2022-08-05T14:05:11.480Z,61.69
2022-08-05T14:08:00.276Z,60.08
2022-08-05T14:10:37.542Z,60.01
2022-08-05T14:13:09.753Z,58.99
2022-08-05T14:16:05.386Z,58.61
2022-08-05T14:18:33.646Z,58.59
2022-08-05T14:22:08.336Z,60.25
2022-08-05T14:23:57.738Z,60.17
2022-08-05T14:26:36.812Z,60.87
2022-08-05T14:29:16.300Z,59.94
2022-08-05T14:32:02.246Z,60.89
2022-08-05T14:34:40.972Z,51.62
2022-08-05T14:37:13.304Z,49.30
2022-08-05T14:39:49.637Z,48.25
2022-08-05T14:42:28.861Z,47.08
2022-08-05T14:45:00.881Z,43.58
2022-08-05T14:48:03.137Z,43.09
2022-08-05T14:50:25.511Z,41.79
2022-08-05T14:52:59.601Z,42.67
2022-08-05T14:55:39.459Z,42.62
2022-08-05T14:58:14.017Z,42.96
2022-08-05T15:00:59.725Z,43.23
2022-08-05T15:03:33.675Z,42.31
2022-08-05T15:06:15.420Z,39.92
2022-08-05T15:09:01.442Z,40.74
2022-08-05T15:11:52.921Z,40.41
2022-08-05T15:14:34.595Z,40.21
2022-08-05T15:17:47.201Z,36.23
2022-08-05T15:20:18.630Z,36.27
2022-08-05T15:22:54.370Z,35.20
2022-08-05T15:25:51.637Z,36.56
2022-08-05T15:28:19.218Z,36.29
2022-08-05T15:30:54.355Z,37.14
2022-08-05T15:34:19.280Z,36.32
2022-08-05T15:36:25.511Z,36.82
2022-08-05T15:40:39.712Z,37.74
2022-08-05T15:41:57.691Z,36.93
2022-08-05T15:44:31.068Z,34.87
2022-08-05T15:47:03.800Z,38.13
2022-08-05T15:49:47.938Z,35.36
2022-08-05T15:52:52.107Z,35.37
2022-08-05T15:55:25.125Z,35.03
2022-08-05T15:58:16.571Z,34.70
2022-08-05T16:00:57.150Z,35.96
2022-08-05T16:03:42.390Z,35.94
2022-08-05T16:06:14.389Z,34.44
2022-08-05T16:08:55.403Z,35.33
2022-08-05T16:11:42.449Z,35.09
2022-08-05T16:14:17.066Z,35.90
2022-08-05T16:16:50.033Z,35.78
2022-08-05T16:20:02.902Z,35.76
2022-08-05T16:22:15.462Z,37.33
2022-08-05T16:24:51.408Z,37.13
2022-08-05T16:27:32.104Z,37.35
2022-08-05T16:30:26.514Z,37.10
2022-08-05T16:33:01.249Z,37.56
2022-08-05T16:35:33.657Z,35.88
2022-08-05T16:38:18.679Z,35.84
2022-08-05T16:41:01.061Z,36.38
2022-08-05T16:43:35.453Z,36.07
2022-08-05T16:46:23.468Z,36.84
2022-08-05T16:48:56.763Z,37.95
2022-08-05T16:51:30.734Z,37.21
2022-08-05T16:54:18.625Z,38.96
2022-08-05T16:56:54.770Z,38.88
2022-08-05T16:59:30.768Z,39.01
2022-08-05T17:02:02.985Z,41.12
2022-08-05T17:04:34.983Z,40.07
2022-08-05T17:07:11.393Z,40.83
2022-08-05T17:09:58.186Z,40.13
2022-08-05T17:12:51.326Z,40.19
2022-08-05T17:15:23.137Z,41.29
2022-08-05T17:18:01.407Z,40.64
2022-08-05T17:20:33.348Z,41.22
2022-08-05T17:23:05.429Z,41.13
2022-08-05T17:25:40.253Z,40.42
2022-08-05T17:28:15.457Z,41.58
2022-08-05T17:30:51.783Z,40.81
2022-08-05T17:33:24.272Z,41.31
2022-08-05T17:36:09.014Z,41.48
2022-08-05T17:38:48.580Z,43.14
2022-08-05T17:42:18.472Z,42.79
2022-08-05T17:44:13.753Z,43.95
2022-08-05T17:46:48.798Z,42.97
2022-08-05T17:49:23.789Z,43.49
2022-08-05T17:51:56.026Z,43.65
2022-08-05T17:54:28.045Z,44.33
2022-08-05T17:57:01.786Z,44.19
2022-08-05T17:59:34.450Z,44.47
2022-08-05T18:02:10.938Z,42.14
2022-08-05T18:04:53.460Z,43.24
2022-08-05T18:07:32.949Z,43.11
2022-08-05T18:10:21.025Z,42.64
2022-08-05T18:12:53.432Z,43.39
2022-08-05T18:15:27.615Z,42.89
2022-08-05T18:18:07.776Z,43.68
2022-08-05T18:20:43.710Z,43.59
2022-08-05T18:23:19.207Z,44.46
2022-08-05T18:25:57.611Z,46.05
2022-08-05T18:28:31.357Z,46.41
2022-08-05T18:31:03.412Z,46.73
2022-08-05T18:33:46.749Z,45.48
2022-08-05T18:36:19.603Z,48.09
2022-08-05T18:39:00.090Z,48.08
2022-08-05T18:41:56.952Z,48.36
2022-08-05T18:44:33.404Z,48.61
2022-08-05T18:47:07.432Z,47.98
2022-08-05T18:50:00.089Z,46.99
2022-08-05T18:52:33.637Z,47.76
2022-08-05T18:55:12.670Z,48.64
2022-08-05T18:57:52.746Z,51.25
2022-08-05T19:00:29.080Z,50.44
2022-08-05T19:03:04.041Z,51.71
2022-08-05T19:06:11.605Z,51.76
2022-08-05T19:08:30.733Z,52.35
2022-08-05T19:11:04.648Z,52.51
2022-08-05T19:13:38.644Z,53.64
2022-08-05T19:16:24.527Z,52.13
2022-08-05T19:19:00.549Z,53.21
2022-08-05T19:21:34.778Z,52.38
2022-08-05T19:24:12.540Z,53.25
2022-08-05T19:26:55.487Z,52.58
2022-08-05T19:29:36.455Z,53.24
2022-08-05T19:32:11.668Z,52.62
2022-08-05T19:34:55.145Z,51.16
2022-08-05T19:37:29.857Z,51.47
2022-08-05T19:40:10.362Z,50.09
2022-08-05T19:43:04.749Z,50.96
2022-08-05T19:45:36.554Z,49.74
2022-08-05T19:48:14.283Z,50.41
2022-08-05T19:50:46.766Z,50.21
2022-08-05T19:54:03.380Z,51.33
2022-08-05T19:56:13.899Z,50.39
2022-08-05T19:58:54.096Z,52.10
2022-08-05T20:01:28.253Z,52.57
2022-08-05T20:04:01.513Z,52.47
2022-08-05T20:06:37.766Z,54.99
2022-08-05T20:09:18.655Z,54.66
2022-08-05T20:11:51.581Z,54.84
2022-08-05T20:14:27.117Z,55.23
2022-08-05T20:16:59.434Z,56.38
2022-08-05T20:19:36.190Z,55.75
2022-08-05T20:22:13.348Z,56.33
2022-08-05T20:24:45.348Z,56.30
2022-08-05T20:27:17.574Z,55.52
2022-08-05T20:29:58.371Z,56.68
2022-08-05T20:32:30.800Z,55.24
2022-08-05T20:35:05.767Z,57.14
2022-08-05T20:38:07.648Z,56.57
2022-08-05T20:40:32.819Z,56.41
2022-08-05T20:43:05.014Z,56.43
2022-08-05T20:45:47.745Z,56.94
2022-08-05T20:48:28.853Z,57.89
2022-08-05T20:51:08.022Z,58.36
2022-08-05T20:53:40.771Z,58.87
2022-08-05T20:56:13.127Z,59.98
2022-08-05T20:58:45.197Z,59.26
2022-08-05T21:01:17.232Z,59.17
2022-08-05T21:03:49.361Z,59.61
2022-08-05T21:06:27.562Z,59.63
2022-08-05T21:09:00.335Z,60.31
2022-08-05T21:12:10.519Z,60.46
2022-08-05T21:14:26.614Z,60.71
2022-08-05T21:16:58.782Z,61.53
2022-08-05T21:19:47.582Z,62.06
2022-08-05T21:22:23.408Z,61.98
2022-08-05T21:24:56.488Z,62.09
2022-08-05T21:27:29.252Z,62.41
2022-08-05T21:30:11.671Z,61.87
2022-08-05T21:32:49.675Z,62.83
2022-08-05T21:35:29.423Z,63.33
2022-08-05T21:38:02.458Z,63.24
2022-08-05T21:40:34.460Z,63.87
2022-08-05T21:43:06.476Z,64.74
2022-08-05T21:45:56.845Z,65.53
2022-08-05T21:48:32.294Z,65.33
2022-08-05T21:52:16.525Z,65.28
2022-08-05T21:54:03.570Z,65.12
2022-08-05T21:56:36.001Z,64.96
2022-08-05T21:59:24.025Z,65.29
2022-08-05T22:01:57.155Z,64.86
2022-08-05T22:04:29.131Z,66.02
2022-08-05T22:07:01.428Z,65.71
2022-08-05T22:09:46.091Z,65.62
2022-08-05T22:12:19.387Z,66.07
2022-08-05T22:14:58.832Z,65.88
2022-08-05T22:17:31.870Z,65.70
2022-08-05T22:20:14.860Z,65.16
2022-08-05T22:23:16.671Z,66.00
2022-08-05T22:26:09.850Z,67.00
2022-08-05T22:28:43.469Z,67.46
2022-08-05T22:31:17.430Z,66.71
2022-08-05T22:33:55.491Z,67.21
2022-08-05T22:36:30.231Z,66.51
2022-08-05T22:39:09.512Z,67.79
2022-08-05T22:42:10.632Z,67.46
2022-08-05T22:44:35.759Z,67.57
2022-08-05T22:47:07.724Z,68.09
2022-08-05T22:50:19.697Z,68.10
2022-08-05T22:52:34.289Z,69.13
2022-08-05T22:55:19.590Z,68.43
2022-08-05T22:57:53.771Z,68.28
2022-08-05T23:00:27.110Z,68.45
2022-08-05T23:02:59.398Z,68.30
2022-08-05T23:05:31.400Z,68.05
2022-08-05T23:08:08.383Z,68.04
2022-08-05T23:10:43.524Z,68.43
2022-08-05T23:13:15.517Z,68.55
2022-08-05T23:15:50.246Z,68.93
2022-08-05T23:18:22.919Z,68.59
2022-08-05T23:20:55.029Z,69.78
2022-08-05T23:23:29.933Z,69.64
2022-08-05T23:26:06.050Z,69.29
2022-08-05T23:28:39.072Z,69.48
2022-08-05T23:31:17.021Z,69.88
2022-08-05T23:34:05.107Z,69.70
2022-08-05T23:36:44.336Z,69.55
2022-08-05T23:39:31.901Z,69.21
2022-08-05T23:42:14.517Z,69.37
2022-08-05T23:44:46.745Z,70.06
2022-08-05T23:47:26.619Z,70.61
2022-08-05T23:49:59.910Z,70.97
2022-08-05T23:52:35.983Z,70.52
2022-08-05T23:55:21.484Z,70.47
2022-08-05T23:57:53.774Z,70.53
